sensor_id;sensor_type;location;lat;lon;timestamp;pressure;altitude;pressure_sealevel;temperature;humidity
59391;BME280;53405;57.012;40.984;2023-08-12T00:01:20;100754.19;;;22.33;76.97
59391;BME280;53405;57.012;40.984;2023-08-12T00:03:48;100751.84;;;22.25;77.23
59391;BME280;53405;57.012;40.984;2023-08-12T00:06:16;100739.56;;;22.29;76.96
59391;BME280;53405;57.012;40.984;2023-08-12T00:08:44;100747.28;;;22.25;77.16
59391;BME280;53405;57.012;40.984;2023-08-12T00:11:11;100735.38;;;22.21;77.01
59391;BME280;53405;57.012;40.984;2023-08-12T00:13:39;100739.84;;;22.15;77.85
59391;BME280;53405;57.012;40.984;2023-08-12T00:16:07;100708.28;;;21.94;77.99
59391;BME280;53405;57.012;40.984;2023-08-12T00:18:34;100740.91;;;22.02;78.01
59391;BME280;53405;57.012;40.984;2023-08-12T00:21:07;100732.53;;;21.99;78.02
59391;BME280;53405;57.012;40.984;2023-08-12T00:23:39;100735.66;;;21.96;78.62
59391;BME280;53405;57.012;40.984;2023-08-12T00:26:08;100729.41;;;21.90;78.87
59391;BME280;53405;57.012;40.984;2023-08-12T00:28:36;100730.56;;;21.82;78.77
59391;BME280;53405;57.012;40.984;2023-08-12T00:31:04;100731.63;;;21.81;78.71
59391;BME280;53405;57.012;40.984;2023-08-12T00:33:33;100723.38;;;21.71;78.98
59391;BME280;53405;57.012;40.984;2023-08-12T00:36:01;100738.13;;;21.74;78.96
59391;BME280;53405;57.012;40.984;2023-08-12T00:38:28;100733.16;;;21.77;79.17
59391;BME280;53405;57.012;40.984;2023-08-12T00:40:56;100733.72;;;21.79;79.05
59391;BME280;53405;57.012;40.984;2023-08-12T00:43:25;100738.25;;;21.79;79.01
59391;BME280;53405;57.012;40.984;2023-08-12T00:45:53;100738.25;;;21.79;78.77
59391;BME280;53405;57.012;40.984;2023-08-12T00:48:20;100731.50;;;21.76;78.78
59391;BME280;53405;57.012;40.984;2023-08-12T00:50:49;100727.09;;;21.70;78.67
59391;BME280;53405;57.012;40.984;2023-08-12T00:53:17;100726.50;;;21.68;78.87
59391;BME280;53405;57.012;40.984;2023-08-12T00:55:45;100718.22;;;21.58;78.86
59391;BME280;53405;57.012;40.984;2023-08-12T00:58:13;100705.84;;;21.45;79.21
59391;BME280;53405;57.012;40.984;2023-08-12T01:00:41;100734.66;;;21.61;79.15
59391;BME280;53405;57.012;40.984;2023-08-12T01:03:09;100732.19;;;21.60;78.79
59391;BME280;53405;57.012;40.984;2023-08-12T01:05:37;100720.56;;;21.54;79.04
59391;BME280;53405;57.012;40.984;2023-08-12T01:08:06;100735.72;;;21.60;78.81
59391;BME280;53405;57.012;40.984;2023-08-12T01:10:36;100705.63;;;21.46;78.92
59391;BME280;53405;57.012;40.984;2023-08-12T01:13:29;100728.94;;;21.58;78.67
59391;BME280;53405;57.012;40.984;2023-08-12T01:16:02;100729.97;;;21.57;79.04
59391;BME280;53405;57.012;40.984;2023-08-12T01:18:31;100728.25;;;21.51;78.95
59391;BME280;53405;57.012;40.984;2023-08-12T01:20:59;100725.59;;;21.51;78.96
59391;BME280;53405;57.012;40.984;2023-08-12T01:23:31;100723.56;;;21.46;79.17
59391;BME280;53405;57.012;40.984;2023-08-12T01:25:59;100724.59;;;21.45;79.19
59391;BME280;53405;57.012;40.984;2023-08-12T01:28:27;100715.38;;;21.41;79.17
59391;BME280;53405;57.012;40.984;2023-08-12T01:31:05;100724.03;;;21.43;79.36
59391;BME280;53405;57.012;40.984;2023-08-12T01:33:42;100699.22;;;21.24;79.01
59391;BME280;53405;57.012;40.984;2023-08-12T01:36:19;100728.22;;;21.39;78.65
59391;BME280;53405;57.012;40.984;2023-08-12T01:38:51;100722.84;;;21.39;78.95
59391;BME280;53405;57.012;40.984;2023-08-12T01:41:20;100727.41;;;21.38;78.83
59391;BME280;53405;57.012;40.984;2023-08-12T01:43:50;100727.97;;;21.40;78.64
59391;BME280;53405;57.012;40.984;2023-08-12T01:46:18;100725.28;;;21.40;78.22
59391;BME280;53405;57.012;40.984;2023-08-12T01:48:46;100723.09;;;21.37;78.27
59391;BME280;53405;57.012;40.984;2023-08-12T01:51:14;100718.19;;;21.34;78.54
59391;BME280;53405;57.012;40.984;2023-08-12T01:53:42;100726.69;;;21.31;78.33
59391;BME280;53405;57.012;40.984;2023-08-12T01:56:09;100726.09;;;21.29;78.76
59391;BME280;53405;57.012;40.984;2023-08-12T01:58:37;100719.56;;;21.25;79.00
59391;BME280;53405;57.012;40.984;2023-08-12T02:01:05;100711.75;;;21.23;78.75
59391;BME280;53405;57.012;40.984;2023-08-12T02:03:33;100712.84;;;21.22;78.82
59391;BME280;53405;57.012;40.984;2023-08-12T02:06:00;100718.41;;;21.21;78.84
59391;BME280;53405;57.012;40.984;2023-08-12T02:08:28;100715.97;;;21.19;78.68
59391;BME280;53405;57.012;40.984;2023-08-12T02:10:56;100702.91;;;21.11;78.83
59391;BME280;53405;57.012;40.984;2023-08-12T02:13:24;100705.72;;;21.16;78.73
59391;BME280;53405;57.012;40.984;2023-08-12T02:15:52;100708.97;;;21.18;78.26
59391;BME280;53405;57.012;40.984;2023-08-12T02:18:22;100704.41;;;21.19;78.06
59391;BME280;53405;57.012;40.984;2023-08-12T02:20:50;100706.06;;;21.20;77.79
59391;BME280;53405;57.012;40.984;2023-08-12T02:23:18;100707.47;;;21.22;78.00
59391;BME280;53405;57.012;40.984;2023-08-12T02:25:47;100675.44;;;21.04;77.89
59391;BME280;53405;57.012;40.984;2023-08-12T02:28:14;100697.81;;;21.21;77.72
59391;BME280;53405;57.012;40.984;2023-08-12T02:30:42;100686.72;;;21.06;77.30
59391;BME280;53405;57.012;40.984;2023-08-12T02:33:10;100700.00;;;21.24;77.18
59391;BME280;53405;57.012;40.984;2023-08-12T02:35:38;100699.22;;;21.24;76.63
59391;BME280;53405;57.012;40.984;2023-08-12T02:38:06;100697.44;;;21.29;76.72
59391;BME280;53405;57.012;40.984;2023-08-12T02:40:34;100698.28;;;21.30;76.49
59391;BME280;53405;57.012;40.984;2023-08-12T02:43:01;100696.19;;;21.32;76.23
59391;BME280;53405;57.012;40.984;2023-08-12T02:45:29;100698.88;;;21.32;76.05
59391;BME280;53405;57.012;40.984;2023-08-12T02:47:57;100683.50;;;21.27;75.59
59391;BME280;53405;57.012;40.984;2023-08-12T02:50:25;100691.63;;;21.33;75.48
59391;BME280;53405;57.012;40.984;2023-08-12T02:52:52;100703.28;;;21.38;75.85
59391;BME280;53405;57.012;40.984;2023-08-12T02:55:20;100701.66;;;21.37;75.59
59391;BME280;53405;57.012;40.984;2023-08-12T02:57:48;100678.94;;;21.28;75.14
59391;BME280;53405;57.012;40.984;2023-08-12T03:00:15;100690.72;;;21.39;75.19
59391;BME280;53405;57.012;40.984;2023-08-12T03:02:44;100704.22;;;21.44;75.02
59391;BME280;53405;57.012;40.984;2023-08-12T03:05:12;100703.75;;;21.47;74.78
59391;BME280;53405;57.012;40.984;2023-08-12T03:07:40;100695.28;;;21.50;74.65
59391;BME280;53405;57.012;40.984;2023-08-12T03:10:08;100702.84;;;21.53;74.94
59391;BME280;53405;57.012;40.984;2023-08-12T03:12:36;100694.56;;;21.55;74.63
59391;BME280;53405;57.012;40.984;2023-08-12T03:15:06;100694.56;;;21.55;74.39
59391;BME280;53405;57.012;40.984;2023-08-12T03:17:34;100699.81;;;21.61;74.32
59391;BME280;53405;57.012;40.984;2023-08-12T03:20:03;100680.00;;;21.62;74.13
59391;BME280;53405;57.012;40.984;2023-08-12T03:22:32;100686.06;;;21.70;73.50
59391;BME280;53405;57.012;40.984;2023-08-12T03:25:00;100677.81;;;21.71;73.35
59391;BME280;53405;57.012;40.984;2023-08-12T03:27:30;100656.13;;;21.61;73.20
59391;BME280;53405;57.012;40.984;2023-08-12T03:29:58;100685.09;;;21.88;72.48
59391;BME280;53405;57.012;40.984;2023-08-12T03:32:26;100683.59;;;21.92;72.36
59391;BME280;53405;57.012;40.984;2023-08-12T03:34:55;100684.16;;;21.94;72.17
59391;BME280;53405;57.012;40.984;2023-08-12T03:37:23;100676.22;;;21.99;71.91
59391;BME280;53405;57.012;40.984;2023-08-12T03:39:52;100677.16;;;22.05;72.25
59391;BME280;53405;57.012;40.984;2023-08-12T03:42:20;100678.75;;;22.06;71.79
59391;BME280;53405;57.012;40.984;2023-08-12T03:44:49;100677.56;;;22.13;71.56
59391;BME280;53405;57.012;40.984;2023-08-12T03:47:17;100674.66;;;22.15;71.09
59391;BME280;53405;57.012;40.984;2023-08-12T03:49:50;100678.59;;;22.24;70.94
59391;BME280;53405;57.012;40.984;2023-08-12T03:52:18;100675.19;;;22.29;70.85
59391;BME280;53405;57.012;40.984;2023-08-12T03:54:46;100677.19;;;22.33;70.85
59391;BME280;53405;57.012;40.984;2023-08-12T03:57:14;100679.06;;;22.33;70.62
59391;BME280;53405;57.012;40.984;2023-08-12T03:59:43;100681.50;;;22.34;70.78
59391;BME280;53405;57.012;40.984;2023-08-12T04:02:10;100672.28;;;22.42;70.50
59391;BME280;53405;57.012;40.984;2023-08-12T04:04:38;100666.50;;;22.50;69.98
59391;BME280;53405;57.012;40.984;2023-08-12T04:07:06;100669.03;;;22.57;69.71
59391;BME280;53405;57.012;40.984;2023-08-12T04:09:34;100662.03;;;22.56;69.86
59391;BME280;53405;57.012;40.984;2023-08-12T04:12:02;100671.81;;;22.62;69.50
59391;BME280;53405;57.012;40.984;2023-08-12T04:14:30;100663.50;;;22.64;69.28
59391;BME280;53405;57.012;40.984;2023-08-12T04:16:58;100661.41;;;22.66;69.55
59391;BME280;53405;57.012;40.984;2023-08-12T04:19:25;100657.66;;;22.67;68.99
59391;BME280;53405;57.012;40.984;2023-08-12T04:21:53;100651.50;;;22.66;69.00
59391;BME280;53405;57.012;40.984;2023-08-12T04:24:21;100654.69;;;22.80;68.63
59391;BME280;53405;57.012;40.984;2023-08-12T04:26:48;100642.38;;;22.84;68.43
59391;BME280;53405;57.012;40.984;2023-08-12T04:29:16;100626.19;;;22.79;68.56
59391;BME280;53405;57.012;40.984;2023-08-12T04:31:46;100642.06;;;22.98;68.64
59391;BME280;53405;57.012;40.984;2023-08-12T04:34:14;100644.03;;;23.02;68.28
59391;BME280;53405;57.012;40.984;2023-08-12T04:36:42;100635.56;;;23.11;68.18
59391;BME280;53405;57.012;40.984;2023-08-12T04:39:10;100636.78;;;23.20;68.50
59391;BME280;53405;57.012;40.984;2023-08-12T04:41:38;100624.34;;;23.14;67.78
59391;BME280;53405;57.012;40.984;2023-08-12T04:44:06;100627.75;;;23.26;67.08
59391;BME280;53405;57.012;40.984;2023-08-12T04:46:35;100635.63;;;23.33;66.59
59391;BME280;53405;57.012;40.984;2023-08-12T04:49:03;100637.56;;;23.37;66.57
59391;BME280;53405;57.012;40.984;2023-08-12T04:51:31;100622.84;;;23.40;66.29
59391;BME280;53405;57.012;40.984;2023-08-12T04:53:59;100641.28;;;23.53;65.89
59391;BME280;53405;57.012;40.984;2023-08-12T04:56:29;100640.59;;;23.63;65.73
59391;BME280;53405;57.012;40.984;2023-08-12T04:58:57;100635.88;;;23.70;65.13
59391;BME280;53405;57.012;40.984;2023-08-12T05:01:31;100641.09;;;23.82;65.66
59391;BME280;53405;57.012;40.984;2023-08-12T05:03:58;100643.41;;;23.90;65.29
59391;BME280;53405;57.012;40.984;2023-08-12T05:06:28;100638.69;;;24.03;65.25
59391;BME280;53405;57.012;40.984;2023-08-12T05:08:56;100637.38;;;24.05;64.98
59391;BME280;53405;57.012;40.984;2023-08-12T05:11:25;100650.38;;;24.13;64.15
59391;BME280;53405;57.012;40.984;2023-08-12T05:13:53;100640.25;;;24.21;64.26
59391;BME280;53405;57.012;40.984;2023-08-12T05:16:20;100641.66;;;24.28;63.77
59391;BME280;53405;57.012;40.984;2023-08-12T05:18:48;100641.72;;;24.33;63.14
59391;BME280;53405;57.012;40.984;2023-08-12T05:21:16;100642.63;;;24.44;62.67
59391;BME280;53405;57.012;40.984;2023-08-12T05:23:43;100643.22;;;24.51;62.49
59391;BME280;53405;57.012;40.984;2023-08-12T05:26:12;100645.78;;;24.63;62.17
59391;BME280;53405;57.012;40.984;2023-08-12T05:28:40;100654.25;;;24.77;62.30
59391;BME280;53405;57.012;40.984;2023-08-12T05:31:07;100640.28;;;24.80;61.70
59391;BME280;53405;57.012;40.984;2023-08-12T05:33:35;100662.69;;;24.91;60.04
59391;BME280;53405;57.012;40.984;2023-08-12T05:36:03;100662.50;;;24.98;60.00
59391;BME280;53405;57.012;40.984;2023-08-12T05:38:31;100637.66;;;24.91;60.12
59391;BME280;53405;57.012;40.984;2023-08-12T05:40:59;100660.19;;;25.12;60.63
59391;BME280;53405;57.012;40.984;2023-08-12T05:43:26;100663.69;;;25.12;60.85
59391;BME280;53405;57.012;40.984;2023-08-12T05:45:54;100666.41;;;25.17;60.82
59391;BME280;53405;57.012;40.984;2023-08-12T05:48:22;100662.69;;;25.23;60.17
59391;BME280;53405;57.012;40.984;2023-08-12T05:50:49;100664.63;;;25.28;58.26
59391;BME280;53405;57.012;40.984;2023-08-12T05:53:17;100660.91;;;25.39;58.93
59391;BME280;53405;57.012;40.984;2023-08-12T05:55:45;100663.63;;;25.39;59.03
59391;BME280;53405;57.012;40.984;2023-08-12T05:58:13;100662.28;;;25.42;59.39
59391;BME280;53405;57.012;40.984;2023-08-12T06:00:41;100671.78;;;25.50;58.89
59391;BME280;53405;57.012;40.984;2023-08-12T06:03:12;100666.13;;;25.56;58.50
59391;BME280;53405;57.012;40.984;2023-08-12T06:05:40;100668.06;;;25.66;58.09
59391;BME280;53405;57.012;40.984;2023-08-12T06:08:08;100661.63;;;25.67;57.20
59391;BME280;53405;57.012;40.984;2023-08-12T06:10:36;100655.72;;;25.86;57.54
59391;BME280;53405;57.012;40.984;2023-08-12T06:13:05;100641.44;;;25.85;57.61
59391;BME280;53405;57.012;40.984;2023-08-12T06:15:33;100663.41;;;26.09;57.43
59391;BME280;53405;57.012;40.984;2023-08-12T06:18:01;100656.94;;;26.15;56.11
59391;BME280;53405;57.012;40.984;2023-08-12T06:20:29;100642.66;;;26.10;56.70
59391;BME280;53405;57.012;40.984;2023-08-12T06:22:57;100660.50;;;26.31;54.52
59391;BME280;53405;57.012;40.984;2023-08-12T06:25:25;100658.09;;;26.40;54.52
59391;BME280;53405;57.012;40.984;2023-08-12T06:27:53;100650.00;;;26.50;55.10
59391;BME280;53405;57.012;40.984;2023-08-12T06:30:20;100657.84;;;26.57;54.70
59391;BME280;53405;57.012;40.984;2023-08-12T06:32:48;100655.41;;;26.61;53.40
59391;BME280;53405;57.012;40.984;2023-08-12T06:35:16;100651.66;;;26.67;53.79
59391;BME280;53405;57.012;40.984;2023-08-12T06:37:43;100644.88;;;26.64;53.19
59391;BME280;53405;57.012;40.984;2023-08-12T06:40:11;100648.97;;;26.72;52.36
59391;BME280;53405;57.012;40.984;2023-08-12T06:42:39;100636.81;;;26.75;53.02
59391;BME280;53405;57.012;40.984;2023-08-12T06:45:07;100641.94;;;26.92;52.88
59391;BME280;53405;57.012;40.984;2023-08-12T06:47:34;100639.22;;;27.02;53.04
59391;BME280;53405;57.012;40.984;2023-08-12T06:50:02;100633.78;;;27.07;51.60
59391;BME280;53405;57.012;40.984;2023-08-12T06:52:31;100628.38;;;27.07;51.32
59391;BME280;53405;57.012;40.984;2023-08-12T06:54:59;100633.25;;;27.15;51.20
59391;BME280;53405;57.012;40.984;2023-08-12T06:57:29;100630.53;;;27.20;50.86
59391;BME280;53405;57.012;40.984;2023-08-12T06:59:57;100619.75;;;27.15;50.77
59391;BME280;53405;57.012;40.984;2023-08-12T07:02:25;100632.16;;;27.42;51.02
59391;BME280;53405;57.012;40.984;2023-08-12T07:04:52;100619.41;;;27.48;50.30
59391;BME280;53405;57.012;40.984;2023-08-12T07:07:20;100626.94;;;27.61;50.09
59391;BME280;53405;57.012;40.984;2023-08-12T07:09:47;100626.13;;;27.66;50.05
59391;BME280;53405;57.012;40.984;2023-08-12T07:12:15;100624.69;;;27.79;49.23
59391;BME280;53405;57.012;40.984;2023-08-12T07:14:43;100625.50;;;27.79;49.08
59391;BME280;53405;57.012;40.984;2023-08-12T07:17:10;100627.94;;;27.81;49.46
59391;BME280;53405;57.012;40.984;2023-08-12T07:19:38;100628.97;;;27.90;48.55
59391;BME280;53405;57.012;40.984;2023-08-12T07:22:06;100629.22;;;27.93;47.32
59391;BME280;53405;57.012;40.984;2023-08-12T07:24:34;100621.91;;;27.99;46.28
59391;BME280;53405;57.012;40.984;2023-08-12T07:27:01;100626.50;;;27.93;46.26
59391;BME280;53405;57.012;40.984;2023-08-12T07:29:29;100633.53;;;28.00;47.54
59391;BME280;53405;57.012;40.984;2023-08-12T07:31:58;100630.78;;;28.10;46.13
59391;BME280;53405;57.012;40.984;2023-08-12T07:34:25;100623.97;;;28.18;45.39
59391;BME280;53405;57.012;40.984;2023-08-12T07:36:54;100629.03;;;28.29;46.75
59391;BME280;53405;57.012;40.984;2023-08-12T07:39:22;100628.09;;;28.50;46.13
59391;BME280;53405;57.012;40.984;2023-08-12T07:41:49;100619.94;;;28.50;44.96
59391;BME280;53405;57.012;40.984;2023-08-12T07:44:17;100618.25;;;28.64;45.08
59391;BME280;53405;57.012;40.984;2023-08-12T07:46:45;100607.56;;;28.78;45.18
59391;BME280;53405;57.012;40.984;2023-08-12T07:49:13;100625.56;;;28.93;43.97
59391;BME280;53405;57.012;40.984;2023-08-12T07:51:42;100622.84;;;28.93;43.14
59391;BME280;53405;57.012;40.984;2023-08-12T07:54:09;100629.28;;;29.02;42.93
59391;BME280;53405;57.012;40.984;2023-08-12T07:56:37;100611.63;;;29.05;41.84
59391;BME280;53405;57.012;40.984;2023-08-12T07:59:05;100613.13;;;29.16;42.07
59391;BME280;53405;57.012;40.984;2023-08-12T08:01:33;100616.03;;;29.25;43.20
59391;BME280;53405;57.012;40.984;2023-08-12T08:04:02;100613.22;;;29.35;43.26
59391;BME280;53405;57.012;40.984;2023-08-12T08:06:30;100611.72;;;29.48;42.75
59391;BME280;53405;57.012;40.984;2023-08-12T08:08:57;100609.91;;;29.62;42.02
59391;BME280;53405;57.012;40.984;2023-08-12T08:11:26;100608.66;;;29.73;42.87
59391;BME280;53405;57.012;40.984;2023-08-12T08:13:54;100599.56;;;29.88;41.92
59391;BME280;53405;57.012;40.984;2023-08-12T08:16:22;100595.97;;;29.93;41.67
59391;BME280;53405;57.012;40.984;2023-08-12T08:18:50;100592.13;;;29.94;41.34
59391;BME280;53405;57.012;40.984;2023-08-12T08:21:17;100597.34;;;30.09;42.11
59391;BME280;53405;57.012;40.984;2023-08-12T08:23:48;100589.72;;;30.12;41.11
59391;BME280;53405;57.012;40.984;2023-08-12T08:26:16;100599.38;;;30.18;42.42
59391;BME280;53405;57.012;40.984;2023-08-12T08:28:44;100591.59;;;30.49;40.60
59391;BME280;53405;57.012;40.984;2023-08-12T08:31:12;100577.97;;;30.82;39.02
59391;BME280;53405;57.012;40.984;2023-08-12T08:33:40;100585.69;;;31.22;38.36
59391;BME280;53405;57.012;40.984;2023-08-12T08:36:09;100592.13;;;31.40;36.66
59391;BME280;53405;57.012;40.984;2023-08-12T08:38:37;100592.16;;;31.54;37.78
59391;BME280;53405;57.012;40.984;2023-08-12T08:41:05;100566.75;;;31.58;37.20
59391;BME280;53405;57.012;40.984;2023-08-12T08:43:36;100588.31;;;31.91;37.12
59391;BME280;53405;57.012;40.984;2023-08-12T08:46:05;100584.53;;;32.15;37.03
59391;BME280;53405;57.012;40.984;2023-08-12T08:48:33;100588.38;;;32.36;37.62
59391;BME280;53405;57.012;40.984;2023-08-12T08:51:03;100584.16;;;32.53;35.54
59391;BME280;53405;57.012;40.984;2023-08-12T08:53:35;100584.91;;;32.67;35.19
59391;BME280;53405;57.012;40.984;2023-08-12T08:56:08;100586.19;;;32.70;35.49
59391;BME280;53405;57.012;40.984;2023-08-12T08:58:41;100585.78;;;32.85;35.63
59391;BME280;53405;57.012;40.984;2023-08-12T09:01:09;100588.03;;;33.23;34.57
59391;BME280;53405;57.012;40.984;2023-08-12T09:03:38;100563.25;;;33.02;34.84
59391;BME280;53405;57.012;40.984;2023-08-12T09:06:07;100586.25;;;33.19;34.04
59391;BME280;53405;57.012;40.984;2023-08-12T09:08:37;100582.81;;;33.53;33.98
59391;BME280;53405;57.012;40.984;2023-08-12T09:11:07;100576.91;;;33.77;33.16
59391;BME280;53405;57.012;40.984;2023-08-12T09:13:34;100588.03;;;33.98;32.36
59391;BME280;53405;57.012;40.984;2023-08-12T09:16:03;100581.59;;;33.94;33.25
59391;BME280;53405;57.012;40.984;2023-08-12T09:18:31;100591.69;;;34.02;31.78
59391;BME280;53405;57.012;40.984;2023-08-12T09:21:00;100574.34;;;33.72;32.55
59391;BME280;53405;57.012;40.984;2023-08-12T09:23:28;100588.03;;;33.81;33.76
59391;BME280;53405;57.012;40.984;2023-08-12T09:25:56;100588.66;;;34.04;34.23
59391;BME280;53405;57.012;40.984;2023-08-12T09:28:24;100583.34;;;34.43;32.76
59391;BME280;53405;57.012;40.984;2023-08-12T09:30:52;100590.59;;;34.95;30.97
59391;BME280;53405;57.012;40.984;2023-08-12T09:33:25;100579.19;;;34.92;30.26
59391;BME280;53405;57.012;40.984;2023-08-12T09:35:54;100574.38;;;34.89;30.18
59391;BME280;53405;57.012;40.984;2023-08-12T09:38:25;100577.94;;;34.81;30.27
59391;BME280;53405;57.012;40.984;2023-08-12T09:40:53;100578.94;;;34.68;30.46
59391;BME280;53405;57.012;40.984;2023-08-12T09:43:27;100579.56;;;34.65;29.92
59391;BME280;53405;57.012;40.984;2023-08-12T09:45:57;100576.28;;;34.33;30.72
59391;BME280;53405;57.012;40.984;2023-08-12T09:48:27;100575.41;;;34.59;30.02
59391;BME280;53405;57.012;40.984;2023-08-12T09:50:56;100553.72;;;34.53;29.64
59391;BME280;53405;57.012;40.984;2023-08-12T09:53:23;100564.44;;;35.15;28.65
59391;BME280;53405;57.012;40.984;2023-08-12T09:55:52;100562.50;;;35.15;28.66
59391;BME280;53405;57.012;40.984;2023-08-12T09:58:22;100576.09;;;35.24;29.10
59391;BME280;53405;57.012;40.984;2023-08-12T10:00:52;100572.50;;;35.41;29.21
59391;BME280;53405;57.012;40.984;2023-08-12T10:03:19;100572.38;;;35.58;29.26
59391;BME280;53405;57.012;40.984;2023-08-12T10:05:47;100563.78;;;35.69;28.87
59391;BME280;53405;57.012;40.984;2023-08-12T10:08:16;100569.53;;;35.76;29.17
59391;BME280;53405;57.012;40.984;2023-08-12T10:10:45;100553.41;;;35.74;28.40
59391;BME280;53405;57.012;40.984;2023-08-12T10:13:16;100559.47;;;35.89;28.03
59391;BME280;53405;57.012;40.984;2023-08-12T10:15:44;100562.72;;;36.15;27.56
59391;BME280;53405;57.012;40.984;2023-08-12T10:18:11;100564.75;;;36.27;27.38
59391;BME280;53405;57.012;40.984;2023-08-12T10:20:39;100569.97;;;36.53;26.77
59391;BME280;53405;57.012;40.984;2023-08-12T10:23:09;100561.31;;;36.76;27.27
59391;BME280;53405;57.012;40.984;2023-08-12T10:25:41;100565.34;;;36.79;26.22
59391;BME280;53405;57.012;40.984;2023-08-12T10:28:11;100560.63;;;36.79;27.34
59391;BME280;53405;57.012;40.984;2023-08-12T10:30:40;100562.31;;;36.71;27.19
59391;BME280;53405;57.012;40.984;2023-08-12T10:33:09;100560.88;;;36.74;26.84
59391;BME280;53405;57.012;40.984;2023-08-12T10:35:44;100550.81;;;37.03;26.93
59391;BME280;53405;57.012;40.984;2023-08-12T10:38:20;100543.50;;;36.82;26.84
59391;BME280;53405;57.012;40.984;2023-08-12T10:40:48;100553.81;;;36.40;27.30
59391;BME280;53405;57.012;40.984;2023-08-12T10:43:15;100560.53;;;36.42;27.59
59391;BME280;53405;57.012;40.984;2023-08-12T10:45:48;100549.28;;;36.23;26.71
59391;BME280;53405;57.012;40.984;2023-08-12T10:48:20;100548.75;;;36.29;28.00
59391;BME280;53405;57.012;40.984;2023-08-12T10:50:51;100547.59;;;36.76;26.78
59391;BME280;53405;57.012;40.984;2023-08-12T10:53:32;100555.47;;;37.27;25.31
59391;BME280;53405;57.012;40.984;2023-08-12T10:56:03;100555.72;;;37.34;25.34
59391;BME280;53405;57.012;40.984;2023-08-12T10:58:40;100562.75;;;37.48;24.81
59391;BME280;53405;57.012;40.984;2023-08-12T11:01:15;100553.06;;;37.38;24.59
59391;BME280;53405;57.012;40.984;2023-08-12T11:03:44;100550.66;;;37.49;25.07
59391;BME280;53405;57.012;40.984;2023-08-12T11:06:11;100552.53;;;37.32;26.06
59391;BME280;53405;57.012;40.984;2023-08-12T11:08:47;100549.19;;;37.39;26.18
59391;BME280;53405;57.012;40.984;2023-08-12T11:11:22;100549.16;;;37.51;25.24
59391;BME280;53405;57.012;40.984;2023-08-12T11:13:55;100526.34;;;37.63;24.74
59391;BME280;53405;57.012;40.984;2023-08-12T11:16:36;100543.72;;;37.27;24.76
59391;BME280;53405;57.012;40.984;2023-08-12T11:19:04;100526.84;;;36.42;25.55
59391;BME280;53405;57.012;40.984;2023-08-12T11:21:35;100535.75;;;36.05;26.60
59391;BME280;53405;57.012;40.984;2023-08-12T11:24:04;100533.78;;;35.72;26.58
59391;BME280;53405;57.012;40.984;2023-08-12T11:26:31;100537.53;;;35.68;27.52
59391;BME280;53405;57.012;40.984;2023-08-12T11:28:59;100532.09;;;36.01;26.66
59391;BME280;53405;57.012;40.984;2023-08-12T11:31:26;100545.50;;;36.61;25.88
59391;BME280;53405;57.012;40.984;2023-08-12T11:33:54;100531.59;;;36.91;26.08
59391;BME280;53405;57.012;40.984;2023-08-12T11:36:22;100542.22;;;37.04;24.98
59391;BME280;53405;57.012;40.984;2023-08-12T11:38:49;100524.38;;;36.61;25.29
59391;BME280;53405;57.012;40.984;2023-08-12T11:41:18;100537.44;;;36.89;25.69
59391;BME280;53405;57.012;40.984;2023-08-12T11:43:45;100546.66;;;36.72;25.21
59391;BME280;53405;57.012;40.984;2023-08-12T11:46:15;100533.75;;;36.72;24.61
59391;BME280;53405;57.012;40.984;2023-08-12T11:48:44;100533.94;;;35.76;26.35
59391;BME280;53405;57.012;40.984;2023-08-12T11:51:13;100531.91;;;35.64;26.55
59391;BME280;53405;57.012;40.984;2023-08-12T11:53:41;100536.06;;;35.91;26.08
59391;BME280;53405;57.012;40.984;2023-08-12T11:56:09;100520.63;;;35.87;26.04
59391;BME280;53405;57.012;40.984;2023-08-12T11:58:38;100518.09;;;35.09;26.73
59391;BME280;53405;57.012;40.984;2023-08-12T12:01:13;100530.50;;;34.68;28.24
59391;BME280;53405;57.012;40.984;2023-08-12T12:03:42;100523.22;;;34.34;28.31
59391;BME280;53405;57.012;40.984;2023-08-12T12:06:12;100498.94;;;34.41;28.68
59391;BME280;53405;57.012;40.984;2023-08-12T12:08:39;100501.22;;;34.21;27.33
59391;BME280;53405;57.012;40.984;2023-08-12T12:11:07;100511.84;;;34.06;27.85
59391;BME280;53405;57.012;40.984;2023-08-12T12:13:35;100514.44;;;34.02;28.15
59391;BME280;53405;57.012;40.984;2023-08-12T12:16:03;100506.84;;;34.16;28.47
59391;BME280;53405;57.012;40.984;2023-08-12T12:18:31;100502.16;;;35.12;26.53
59391;BME280;53405;57.012;40.984;2023-08-12T12:20:59;100501.66;;;34.88;26.08
59391;BME280;53405;57.012;40.984;2023-08-12T12:23:30;100509.56;;;34.34;27.11
59391;BME280;53405;57.012;40.984;2023-08-12T12:26:02;100500.47;;;33.86;28.00
59391;BME280;53405;57.012;40.984;2023-08-12T12:28:30;100500.78;;;33.67;27.70
59391;BME280;53405;57.012;40.984;2023-08-12T12:30:58;100509.78;;;33.59;28.83
59391;BME280;53405;57.012;40.984;2023-08-12T12:33:26;100507.53;;;33.61;28.52
59391;BME280;53405;57.012;40.984;2023-08-12T12:35:55;100478.59;;;33.25;29.84
59391;BME280;53405;57.012;40.984;2023-08-12T12:38:25;100497.72;;;33.34;29.00
59391;BME280;53405;57.012;40.984;2023-08-12T12:40:53;100497.47;;;33.04;29.86
59391;BME280;53405;57.012;40.984;2023-08-12T12:43:20;100497.63;;;32.99;29.26
59391;BME280;53405;57.012;40.984;2023-08-12T12:45:48;100499.56;;;33.07;29.28
59391;BME280;53405;57.012;40.984;2023-08-12T12:48:16;100497.94;;;32.97;28.94